sensor_id;sensor_type;location;lat;lon;timestamp;P1;durP1;ratioP1;P2;durP2;ratioP2
25717;SDS011;13574;52.040;5.692;2022-07-26T00:01:15;11.27;;;2.30;;
25717;SDS011;13574;52.040;5.692;2022-07-26T00:03:41;8.57;;;2.83;;
25717;SDS011;13574;52.040;5.692;2022-07-26T00:06:07;13.23;;;3.38;;
25717;SDS011;13574;52.040;5.692;2022-07-26T00:08:33;9.75;;;2.88;;
25717;SDS011;13574;52.040;5.692;2022-07-26T00:10:58;10.45;;;2.55;;
25717;SDS011;13574;52.040;5.692;2022-07-26T00:13:24;13.63;;;3.72;;
25717;SDS011;13574;52.040;5.692;2022-07-26T00:15:50;12.23;;;2.67;;
25717;SDS011;13574;52.040;5.692;2022-07-26T00:18:16;12.90;;;2.70;;
25717;SDS011;13574;52.040;5.692;2022-07-26T00:20:43;11.50;;;3.00;;
25717;SDS011;13574;52.040;5.692;2022-07-26T00:23:09;10.30;;;2.40;;
25717;SDS011;13574;52.040;5.692;2022-07-26T00:25:35;10.65;;;2.75;;
25717;SDS011;13574;52.040;5.692;2022-07-26T00:28:01;13.18;;;2.80;;
25717;SDS011;13574;52.040;5.692;2022-07-26T00:30:27;11.52;;;3.22;;
25717;SDS011;13574;52.040;5.692;2022-07-26T00:32:52;16.83;;;3.00;;
25717;SDS011;13574;52.040;5.692;2022-07-26T00:35:18;12.10;;;2.85;;
25717;SDS011;13574;52.040;5.692;2022-07-26T00:37:45;13.50;;;2.95;;
25717;SDS011;13574;52.040;5.692;2022-07-26T00:40:11;13.52;;;2.72;;
25717;SDS011;13574;52.040;5.692;2022-07-26T00:42:37;10.18;;;2.72;;
25717;SDS011;13574;52.040;5.692;2022-07-26T00:45:03;11.65;;;2.88;;
25717;SDS011;13574;52.040;5.692;2022-07-26T00:47:31;10.30;;;2.58;;
25717;SDS011;13574;52.040;5.692;2022-07-26T00:49:56;11.15;;;3.30;;
25717;SDS011;13574;52.040;5.692;2022-07-26T00:52:22;12.27;;;3.22;;
25717;SDS011;13574;52.040;5.692;2022-07-26T00:54:48;10.68;;;2.58;;
25717;SDS011;13574;52.040;5.692;2022-07-26T00:57:15;13.15;;;2.90;;
25717;SDS011;13574;52.040;5.692;2022-07-26T00:59:41;9.45;;;2.92;;
25717;SDS011;13574;52.040;5.692;2022-07-26T01:02:07;12.10;;;3.08;;
25717;SDS011;13574;52.040;5.692;2022-07-26T01:04:34;10.43;;;2.88;;
25717;SDS011;13574;52.040;5.692;2022-07-26T01:07:00;14.57;;;2.83;;
25717;SDS011;13574;52.040;5.692;2022-07-26T01:09:27;11.63;;;2.75;;
25717;SDS011;13574;52.040;5.692;2022-07-26T01:11:53;10.70;;;2.90;;
25717;SDS011;13574;52.040;5.692;2022-07-26T01:14:19;12.82;;;2.88;;
25717;SDS011;13574;52.040;5.692;2022-07-26T01:16:48;10.57;;;2.95;;
25717;SDS011;13574;52.040;5.692;2022-07-26T01:19:14;8.48;;;2.45;;
25717;SDS011;13574;52.040;5.692;2022-07-26T01:21:41;10.82;;;2.70;;
25717;SDS011;13574;52.040;5.692;2022-07-26T01:24:06;11.70;;;2.80;;
25717;SDS011;13574;52.040;5.692;2022-07-26T01:26:32;14.35;;;2.50;;
25717;SDS011;13574;52.040;5.692;2022-07-26T01:28:58;10.45;;;3.50;;
25717;SDS011;13574;52.040;5.692;2022-07-26T01:31:24;15.18;;;2.70;;
25717;SDS011;13574;52.040;5.692;2022-07-26T01:33:50;11.23;;;3.42;;
25717;SDS011;13574;52.040;5.692;2022-07-26T01:36:16;12.80;;;2.95;;
25717;SDS011;13574;52.040;5.692;2022-07-26T01:38:41;10.30;;;2.90;;
25717;SDS011;13574;52.040;5.692;2022-07-26T01:41:07;16.92;;;3.30;;
25717;SDS011;13574;52.040;5.692;2022-07-26T01:43:33;11.85;;;2.95;;
25717;SDS011;13574;52.040;5.692;2022-07-26T01:46:00;11.40;;;2.78;;
25717;SDS011;13574;52.040;5.692;2022-07-26T01:48:27;10.02;;;2.72;;
25717;SDS011;13574;52.040;5.692;2022-07-26T01:50:52;13.52;;;2.88;;
25717;SDS011;13574;52.040;5.692;2022-07-26T01:53:18;11.57;;;3.05;;
25717;SDS011;13574;52.040;5.692;2022-07-26T01:55:44;11.07;;;3.00;;
25717;SDS011;13574;52.040;5.692;2022-07-26T01:58:09;12.07;;;2.97;;
25717;SDS011;13574;52.040;5.692;2022-07-26T02:00:35;11.25;;;3.30;;
25717;SDS011;13574;52.040;5.692;2022-07-26T02:03:01;12.82;;;3.13;;
25717;SDS011;13574;52.040;5.692;2022-07-26T02:05:26;12.02;;;3.38;;
25717;SDS011;13574;52.040;5.692;2022-07-26T02:07:52;9.90;;;2.97;;
25717;SDS011;13574;52.040;5.692;2022-07-26T02:10:18;8.20;;;2.90;;
25717;SDS011;13574;52.040;5.692;2022-07-26T02:12:43;13.38;;;3.45;;
25717;SDS011;13574;52.040;5.692;2022-07-26T02:15:12;14.02;;;3.65;;
25717;SDS011;13574;52.040;5.692;2022-07-26T02:17:38;12.65;;;3.10;;
25717;SDS011;13574;52.040;5.692;2022-07-26T02:20:04;8.18;;;2.88;;
25717;SDS011;13574;52.040;5.692;2022-07-26T02:22:31;13.68;;;3.85;;
25717;SDS011;13574;52.040;5.692;2022-07-26T02:24:56;12.40;;;3.60;;
25717;SDS011;13574;52.040;5.692;2022-07-26T02:27:22;12.15;;;3.67;;
25717;SDS011;13574;52.040;5.692;2022-07-26T02:29:49;13.15;;;3.30;;
25717;SDS011;13574;52.040;5.692;2022-07-26T02:32:15;11.43;;;3.22;;
25717;SDS011;13574;52.040;5.692;2022-07-26T02:34:40;11.10;;;3.17;;
25717;SDS011;13574;52.040;5.692;2022-07-26T02:37:06;15.10;;;3.90;;
25717;SDS011;13574;52.040;5.692;2022-07-26T02:39:31;12.02;;;3.47;;
25717;SDS011;13574;52.040;5.692;2022-07-26T02:41:58;10.13;;;3.30;;
25717;SDS011;13574;52.040;5.692;2022-07-26T02:44:25;9.70;;;3.33;;
25717;SDS011;13574;52.040;5.692;2022-07-26T02:46:52;11.77;;;3.47;;
25717;SDS011;13574;52.040;5.692;2022-07-26T02:49:18;10.40;;;3.53;;
25717;SDS011;13574;52.040;5.692;2022-07-26T02:51:45;10.88;;;3.45;;
25717;SDS011;13574;52.040;5.692;2022-07-26T02:54:11;9.93;;;3.28;;
25717;SDS011;13574;52.040;5.692;2022-07-26T02:56:37;8.05;;;2.88;;
25717;SDS011;13574;52.040;5.692;2022-07-26T02:59:03;9.20;;;2.83;;
25717;SDS011;13574;52.040;5.692;2022-07-26T03:01:29;7.38;;;3.08;;
25717;SDS011;13574;52.040;5.692;2022-07-26T03:03:54;10.65;;;3.42;;
25717;SDS011;13574;52.040;5.692;2022-07-26T03:06:20;9.75;;;3.20;;
25717;SDS011;13574;52.040;5.692;2022-07-26T03:08:46;10.35;;;3.28;;
25717;SDS011;13574;52.040;5.692;2022-07-26T03:11:13;9.82;;;2.90;;
25717;SDS011;13574;52.040;5.692;2022-07-26T03:13:38;7.85;;;2.85;;
25717;SDS011;13574;52.040;5.692;2022-07-26T03:16:05;8.07;;;2.92;;
25717;SDS011;13574;52.040;5.692;2022-07-26T03:18:31;11.35;;;2.88;;
25717;SDS011;13574;52.040;5.692;2022-07-26T03:20:57;8.90;;;2.90;;
25717;SDS011;13574;52.040;5.692;2022-07-26T03:23:23;10.40;;;3.15;;
25717;SDS011;13574;52.040;5.692;2022-07-26T03:25:49;7.53;;;3.10;;
25717;SDS011;13574;52.040;5.692;2022-07-26T03:28:14;9.50;;;3.72;;
25717;SDS011;13574;52.040;5.692;2022-07-26T03:30:40;10.48;;;3.15;;
25717;SDS011;13574;52.040;5.692;2022-07-26T03:33:05;7.88;;;3.15;;
25717;SDS011;13574;52.040;5.692;2022-07-26T03:35:31;8.07;;;3.28;;
25717;SDS011;13574;52.040;5.692;2022-07-26T03:37:57;11.57;;;3.55;;
25717;SDS011;13574;52.040;5.692;2022-07-26T03:40:22;10.15;;;3.50;;
25717;SDS011;13574;52.040;5.692;2022-07-26T03:42:48;7.13;;;2.92;;
25717;SDS011;13574;52.040;5.692;2022-07-26T03:45:14;13.85;;;3.60;;
25717;SDS011;13574;52.040;5.692;2022-07-26T03:47:40;10.38;;;3.33;;
25717;SDS011;13574;52.040;5.692;2022-07-26T03:50:06;8.15;;;2.88;;
25717;SDS011;13574;52.040;5.692;2022-07-26T03:52:35;10.13;;;3.60;;
25717;SDS011;13574;52.040;5.692;2022-07-26T03:55:00;10.73;;;3.17;;
25717;SDS011;13574;52.040;5.692;2022-07-26T03:57:46;10.65;;;3.50;;
25717;SDS011;13574;52.040;5.692;2022-07-26T04:00:12;10.18;;;3.53;;
25717;SDS011;13574;52.040;5.692;2022-07-26T04:02:39;9.85;;;3.42;;
25717;SDS011;13574;52.040;5.692;2022-07-26T04:05:04;9.90;;;3.10;;
25717;SDS011;13574;52.040;5.692;2022-07-26T04:07:30;8.23;;;3.40;;
25717;SDS011;13574;52.040;5.692;2022-07-26T04:09:56;11.35;;;3.75;;
25717;SDS011;13574;52.040;5.692;2022-07-26T04:12:22;9.02;;;2.95;;
25717;SDS011;13574;52.040;5.692;2022-07-26T04:14:47;10.77;;;3.40;;
25717;SDS011;13574;52.040;5.692;2022-07-26T04:17:13;8.30;;;3.25;;
25717;SDS011;13574;52.040;5.692;2022-07-26T04:19:38;6.57;;;2.78;;
25717;SDS011;13574;52.040;5.692;2022-07-26T04:22:04;8.05;;;2.80;;
25717;SDS011;13574;52.040;5.692;2022-07-26T04:24:29;7.55;;;3.20;;
25717;SDS011;13574;52.040;5.692;2022-07-26T04:26:55;7.10;;;2.80;;
25717;SDS011;13574;52.040;5.692;2022-07-26T04:29:21;7.18;;;3.13;;
25717;SDS011;13574;52.040;5.692;2022-07-26T04:31:46;7.65;;;3.00;;
25717;SDS011;13574;52.040;5.692;2022-07-26T04:34:12;6.32;;;2.50;;
25717;SDS011;13574;52.040;5.692;2022-07-26T04:36:38;3.95;;;2.10;;
25717;SDS011;13574;52.040;5.692;2022-07-26T04:39:03;7.07;;;2.97;;
25717;SDS011;13574;52.040;5.692;2022-07-26T04:41:29;7.60;;;2.95;;
25717;SDS011;13574;52.040;5.692;2022-07-26T04:43:54;7.35;;;2.72;;
25717;SDS011;13574;52.040;5.692;2022-07-26T04:46:20;7.10;;;2.80;;
25717;SDS011;13574;52.040;5.692;2022-07-26T04:48:46;6.65;;;2.90;;
25717;SDS011;13574;52.040;5.692;2022-07-26T04:51:11;7.13;;;3.00;;
25717;SDS011;13574;52.040;5.692;2022-07-26T04:53:37;8.45;;;2.80;;
25717;SDS011;13574;52.040;5.692;2022-07-26T04:56:03;9.05;;;3.00;;
25717;SDS011;13574;52.040;5.692;2022-07-26T04:58:29;9.50;;;3.03;;
25717;SDS011;13574;52.040;5.692;2022-07-26T05:00:55;7.47;;;2.63;;
25717;SDS011;13574;52.040;5.692;2022-07-26T05:03:21;8.45;;;3.05;;
25717;SDS011;13574;52.040;5.692;2022-07-26T05:05:49;9.60;;;3.13;;
25717;SDS011;13574;52.040;5.692;2022-07-26T05:08:14;7.00;;;2.67;;
25717;SDS011;13574;52.040;5.692;2022-07-26T05:10:40;7.95;;;2.60;;
25717;SDS011;13574;52.040;5.692;2022-07-26T05:13:06;8.60;;;3.55;;
25717;SDS011;13574;52.040;5.692;2022-07-26T05:15:33;7.72;;;3.00;;
25717;SDS011;13574;52.040;5.692;2022-07-26T05:20:29;9.98;;;2.90;;
25717;SDS011;13574;52.040;5.692;2022-07-26T05:22:55;9.38;;;3.10;;
25717;SDS011;13574;52.040;5.692;2022-07-26T05:25:21;7.20;;;2.75;;
25717;SDS011;13574;52.040;5.692;2022-07-26T05:27:47;7.05;;;2.53;;
25717;SDS011;13574;52.040;5.692;2022-07-26T05:30:13;6.95;;;3.05;;
25717;SDS011;13574;52.040;5.692;2022-07-26T05:32:38;5.50;;;2.67;;
25717;SDS011;13574;52.040;5.692;2022-07-26T05:35:05;7.20;;;3.00;;
25717;SDS011;13574;52.040;5.692;2022-07-26T05:37:31;5.80;;;2.50;;
25717;SDS011;13574;52.040;5.692;2022-07-26T05:39:57;4.18;;;2.03;;
25717;SDS011;13574;52.040;5.692;2022-07-26T05:42:22;5.43;;;2.10;;
25717;SDS011;13574;52.040;5.692;2022-07-26T05:44:49;7.43;;;2.00;;
25717;SDS011;13574;52.040;5.692;2022-07-26T05:47:15;6.30;;;2.35;;
25717;SDS011;13574;52.040;5.692;2022-07-26T05:49:41;7.10;;;2.40;;
25717;SDS011;13574;52.040;5.692;2022-07-26T05:52:07;6.75;;;2.10;;
25717;SDS011;13574;52.040;5.692;2022-07-26T05:54:33;5.00;;;2.30;;
25717;SDS011;13574;52.040;5.692;2022-07-26T05:57:04;7.80;;;2.40;;
25717;SDS011;13574;52.040;5.692;2022-07-26T05:59:30;5.93;;;2.38;;
25717;SDS011;13574;52.040;5.692;2022-07-26T06:01:56;6.35;;;2.25;;
25717;SDS011;13574;52.040;5.692;2022-07-26T06:04:24;5.25;;;1.92;;
25717;SDS011;13574;52.040;5.692;2022-07-26T06:06:50;5.95;;;2.30;;
25717;SDS011;13574;52.040;5.692;2022-07-26T06:09:17;8.00;;;2.08;;
25717;SDS011;13574;52.040;5.692;2022-07-26T06:11:52;6.82;;;2.45;;
25717;SDS011;13574;52.040;5.692;2022-07-26T06:14:20;6.28;;;2.28;;
25717;SDS011;13574;52.040;5.692;2022-07-26T06:16:46;6.60;;;2.75;;
25717;SDS011;13574;52.040;5.692;2022-07-26T06:19:20;5.30;;;2.33;;
25717;SDS011;13574;52.040;5.692;2022-07-26T06:21:46;6.53;;;2.50;;
25717;SDS011;13574;52.040;5.692;2022-07-26T06:24:12;4.95;;;2.30;;
25717;SDS011;13574;52.040;5.692;2022-07-26T06:26:40;5.82;;;2.60;;
25717;SDS011;13574;52.040;5.692;2022-07-26T06:29:06;8.75;;;2.60;;
25717;SDS011;13574;52.040;5.692;2022-07-26T06:31:35;5.47;;;2.70;;
25717;SDS011;13574;52.040;5.692;2022-07-26T06:34:01;7.65;;;2.90;;
25717;SDS011;13574;52.040;5.692;2022-07-26T06:36:29;6.60;;;3.15;;
25717;SDS011;13574;52.040;5.692;2022-07-26T06:38:55;6.65;;;2.92;;
25717;SDS011;13574;52.040;5.692;2022-07-26T06:41:21;9.30;;;3.60;;
25717;SDS011;13574;52.040;5.692;2022-07-26T06:43:52;15.30;;;3.67;;
25717;SDS011;13574;52.040;5.692;2022-07-26T06:46:20;8.18;;;2.50;;
25717;SDS011;13574;52.040;5.692;2022-07-26T06:48:47;5.32;;;2.70;;
25717;SDS011;13574;52.040;5.692;2022-07-26T06:51:16;7.93;;;2.88;;
25717;SDS011;13574;52.040;5.692;2022-07-26T06:53:41;7.15;;;2.53;;
25717;SDS011;13574;52.040;5.692;2022-07-26T06:56:10;6.50;;;2.58;;
25717;SDS011;13574;52.040;5.692;2022-07-26T06:58:38;7.32;;;2.80;;
25717;SDS011;13574;52.040;5.692;2022-07-26T07:01:06;8.68;;;2.50;;
25717;SDS011;13574;52.040;5.692;2022-07-26T07:03:35;5.13;;;2.10;;
25717;SDS011;13574;52.040;5.692;2022-07-26T07:06:01;6.20;;;2.30;;
25717;SDS011;13574;52.040;5.692;2022-07-26T07:08:26;5.65;;;2.72;;
25717;SDS011;13574;52.040;5.692;2022-07-26T07:10:54;5.55;;;2.50;;
25717;SDS011;13574;52.040;5.692;2022-07-26T07:13:20;7.28;;;3.00;;
25717;SDS011;13574;52.040;5.692;2022-07-26T07:15:48;9.15;;;3.60;;
25717;SDS011;13574;52.040;5.692;2022-07-26T07:18:14;6.35;;;3.03;;
25717;SDS011;13574;52.040;5.692;2022-07-26T07:20:40;9.50;;;3.50;;
25717;SDS011;13574;52.040;5.692;2022-07-26T07:23:06;4.32;;;2.65;;
25717;SDS011;13574;52.040;5.692;2022-07-26T07:25:32;4.70;;;2.63;;
25717;SDS011;13574;52.040;5.692;2022-07-26T07:27:58;5.53;;;2.80;;
25717;SDS011;13574;52.040;5.692;2022-07-26T07:30:24;5.18;;;2.65;;
25717;SDS011;13574;52.040;5.692;2022-07-26T07:32:50;5.07;;;2.70;;
25717;SDS011;13574;52.040;5.692;2022-07-26T07:35:16;5.38;;;2.65;;
25717;SDS011;13574;52.040;5.692;2022-07-26T07:37:42;6.45;;;2.50;;
25717;SDS011;13574;52.040;5.692;2022-07-26T07:40:09;6.00;;;2.63;;
25717;SDS011;13574;52.040;5.692;2022-07-26T07:42:38;7.10;;;2.65;;
25717;SDS011;13574;52.040;5.692;2022-07-26T07:45:06;6.53;;;2.63;;
25717;SDS011;13574;52.040;5.692;2022-07-26T07:47:35;6.93;;;2.83;;
25717;SDS011;13574;52.040;5.692;2022-07-26T07:50:04;5.78;;;2.70;;
25717;SDS011;13574;52.040;5.692;2022-07-26T07:52:31;7.35;;;3.35;;
25717;SDS011;13574;52.040;5.692;2022-07-26T07:54:56;6.43;;;3.03;;
25717;SDS011;13574;52.040;5.692;2022-07-26T07:57:22;6.43;;;2.97;;
25717;SDS011;13574;52.040;5.692;2022-07-26T07:59:53;11.13;;;3.70;;
25717;SDS011;13574;52.040;5.692;2022-07-26T08:02:22;7.63;;;2.83;;
25717;SDS011;13574;52.040;5.692;2022-07-26T08:04:47;6.32;;;2.60;;
25717;SDS011;13574;52.040;5.692;2022-07-26T08:07:13;7.45;;;2.38;;
25717;SDS011;13574;52.040;5.692;2022-07-26T08:09:39;6.85;;;2.80;;
25717;SDS011;13574;52.040;5.692;2022-07-26T08:12:04;4.70;;;2.22;;
25717;SDS011;13574;52.040;5.692;2022-07-26T08:14:30;5.65;;;2.40;;
25717;SDS011;13574;52.040;5.692;2022-07-26T08:16:56;5.28;;;1.90;;
25717;SDS011;13574;52.040;5.692;2022-07-26T08:19:22;7.03;;;2.45;;
25717;SDS011;13574;52.040;5.692;2022-07-26T08:21:48;6.85;;;1.92;;
25717;SDS011;13574;52.040;5.692;2022-07-26T08:24:13;5.35;;;2.10;;
25717;SDS011;13574;52.040;5.692;2022-07-26T08:26:42;5.35;;;1.95;;
25717;SDS011;13574;52.040;5.692;2022-07-26T08:29:07;5.18;;;1.98;;
25717;SDS011;13574;52.040;5.692;2022-07-26T08:31:33;5.85;;;1.55;;
25717;SDS011;13574;52.040;5.692;2022-07-26T08:33:59;5.22;;;1.60;;
25717;SDS011;13574;52.040;5.692;2022-07-26T08:36:27;5.20;;;1.50;;
25717;SDS011;13574;52.040;5.692;2022-07-26T08:38:55;3.45;;;1.40;;
25717;SDS011;13574;52.040;5.692;2022-07-26T08:41:21;6.32;;;1.88;;
25717;SDS011;13574;52.040;5.692;2022-07-26T08:43:47;5.03;;;1.65;;
25717;SDS011;13574;52.040;5.692;2022-07-26T08:46:13;3.33;;;1.50;;
25717;SDS011;13574;52.040;5.692;2022-07-26T08:48:49;3.15;;;1.45;;
25717;SDS011;13574;52.040;5.692;2022-07-26T08:51:15;3.50;;;1.40;;
25717;SDS011;13574;52.040;5.692;2022-07-26T08:53:44;4.57;;;1.27;;
25717;SDS011;13574;52.040;5.692;2022-07-26T08:56:12;2.88;;;1.27;;
25717;SDS011;13574;52.040;5.692;2022-07-26T08:58:41;3.05;;;1.20;;
25717;SDS011;13574;52.040;5.692;2022-07-26T09:01:08;3.90;;;1.10;;
25717;SDS011;13574;52.040;5.692;2022-07-26T09:03:39;3.97;;;1.10;;
25717;SDS011;13574;52.040;5.692;2022-07-26T09:06:09;2.17;;;1.20;;
25717;SDS011;13574;52.040;5.692;2022-07-26T09:08:35;2.87;;;1.50;;
25717;SDS011;13574;52.040;5.692;2022-07-26T09:11:01;4.00;;;1.42;;
25717;SDS011;13574;52.040;5.692;2022-07-26T09:16:31;3.38;;;1.25;;
25717;SDS011;13574;52.040;5.692;2022-07-26T09:19:20;3.70;;;1.10;;
25717;SDS011;13574;52.040;5.692;2022-07-26T09:21:47;4.57;;;1.30;;
25717;SDS011;13574;52.040;5.692;2022-07-26T09:24:29;2.30;;;1.05;;
25717;SDS011;13574;52.040;5.692;2022-07-26T09:27:00;3.53;;;1.33;;
25717;SDS011;13574;52.040;5.692;2022-07-26T09:29:26;3.53;;;1.05;;
25717;SDS011;13574;52.040;5.692;2022-07-26T09:31:53;3.90;;;0.98;;
25717;SDS011;13574;52.040;5.692;2022-07-26T09:34:37;3.30;;;1.08;;
25717;SDS011;13574;52.040;5.692;2022-07-26T09:37:04;3.67;;;1.20;;
25717;SDS011;13574;52.040;5.692;2022-07-26T09:39:30;4.38;;;1.23;;
25717;SDS011;13574;52.040;5.692;2022-07-26T09:41:55;3.97;;;0.90;;
25717;SDS011;13574;52.040;5.692;2022-07-26T09:44:25;3.67;;;1.00;;
25717;SDS011;13574;52.040;5.692;2022-07-26T09:47:18;2.33;;;0.80;;
25717;SDS011;13574;52.040;5.692;2022-07-26T09:49:46;2.10;;;1.00;;
25717;SDS011;13574;52.040;5.692;2022-07-26T09:52:20;5.78;;;1.30;;
25717;SDS011;13574;52.040;5.692;2022-07-26T09:55:05;1.75;;;0.80;;
25717;SDS011;13574;52.040;5.692;2022-07-26T09:57:52;2.60;;;0.70;;
25717;SDS011;13574;52.040;5.692;2022-07-26T10:00:18;2.03;;;0.77;;
25717;SDS011;13574;52.040;5.692;2022-07-26T10:03:36;2.90;;;0.85;;
25717;SDS011;13574;52.040;5.692;2022-07-26T10:06:04;2.55;;;0.90;;
25717;SDS011;13574;52.040;5.692;2022-07-26T10:08:32;2.55;;;0.85;;
25717;SDS011;13574;52.040;5.692;2022-07-26T10:11:01;2.72;;;0.80;;
25717;SDS011;13574;52.040;5.692;2022-07-26T10:13:32;1.90;;;0.90;;
25717;SDS011;13574;52.040;5.692;2022-07-26T10:15:58;2.33;;;1.05;;
25717;SDS011;13574;52.040;5.692;2022-07-26T10:21:17;2.60;;;1.23;;
25717;SDS011;13574;52.040;5.692;2022-07-26T10:23:57;3.92;;;1.35;;
25717;SDS011;13574;52.040;5.692;2022-07-26T10:31:43;5.78;;;1.50;;
25717;SDS011;13574;52.040;5.692;2022-07-26T10:37:06;3.28;;;1.30;;
25717;SDS011;13574;52.040;5.692;2022-07-26T10:39:36;3.65;;;1.20;;
25717;SDS011;13574;52.040;5.692;2022-07-26T10:42:08;4.32;;;1.45;;
25717;SDS011;13574;52.040;5.692;2022-07-26T10:44:37;7.03;;;1.70;;
25717;SDS011;13574;52.040;5.692;2022-07-26T10:52:22;3.75;;;1.38;;
25717;SDS011;13574;52.040;5.692;2022-07-26T10:57:21;5.13;;;1.17;;
25717;SDS011;13574;52.040;5.692;2022-07-26T10:59:48;5.15;;;0.90;;
25717;SDS011;13574;52.040;5.692;2022-07-26T11:02:17;4.70;;;0.80;;
25717;SDS011;13574;52.040;5.692;2022-07-26T11:04:47;4.60;;;0.88;;
25717;SDS011;13574;52.040;5.692;2022-07-26T11:07:16;1.88;;;0.80;;
25717;SDS011;13574;52.040;5.692;2022-07-26T11:09:45;3.25;;;0.75;;
25717;SDS011;13574;52.040;5.692;2022-07-26T11:12:17;5.45;;;0.70;;
25717;SDS011;13574;52.040;5.692;2022-07-26T11:14:46;3.85;;;1.08;;
25717;SDS011;13574;52.040;5.692;2022-07-26T11:17:28;3.53;;;0.73;;
25717;SDS011;13574;52.040;5.692;2022-07-26T11:19:57;2.80;;;0.65;;
25717;SDS011;13574;52.040;5.692;2022-07-26T11:22:30;4.10;;;0.90;;
25717;SDS011;13574;52.040;5.692;2022-07-26T11:27:29;3.03;;;0.90;;
25717;SDS011;13574;52.040;5.692;2022-07-26T11:30:01;2.25;;;0.70;;
25717;SDS011;13574;52.040;5.692;2022-07-26T11:32:30;3.47;;;0.70;;
25717;SDS011;13574;52.040;5.692;2022-07-26T11:34:57;5.22;;;0.90;;
25717;SDS011;13574;52.040;5.692;2022-07-26T11:37:27;3.85;;;1.10;;
25717;SDS011;13574;52.040;5.692;2022-07-26T11:39:55;4.43;;;1.10;;
25717;SDS011;13574;52.040;5.692;2022-07-26T11:42:21;5.80;;;1.10;;
25717;SDS011;13574;52.040;5.692;2022-07-26T11:44:47;4.35;;;1.10;;
25717;SDS011;13574;52.040;5.692;2022-07-26T11:47:18;3.00;;;0.93;;
25717;SDS011;13574;52.040;5.692;2022-07-26T11:49:48;4.63;;;1.08;;
25717;SDS011;13574;52.040;5.692;2022-07-26T11:52:14;3.67;;;0.93;;
25717;SDS011;13574;52.040;5.692;2022-07-26T11:54:51;5.40;;;1.33;;
25717;SDS011;13574;52.040;5.692;2022-07-26T11:57:20;4.63;;;1.00;;
25717;SDS011;13574;52.040;5.692;2022-07-26T11:59:53;4.57;;;1.10;;
25717;SDS011;13574;52.040;5.692;2022-07-26T12:02:22;4.90;;;1.05;;
25717;SDS011;13574;52.040;5.692;2022-07-26T12:05:10;5.67;;;1.60;;
25717;SDS011;13574;52.040;5.692;2022-07-26T12:07:53;5.03;;;1.30;;
25717;SDS011;13574;52.040;5.692;2022-07-26T12:10:32;5.80;;;1.05;;
25717;SDS011;13574;52.040;5.692;2022-07-26T12:13:07;3.63;;;1.25;;
25717;SDS011;13574;52.040;5.692;2022-07-26T12:15:49;6.50;;;1.20;;
25717;SDS011;13574;52.040;5.692;2022-07-26T12:18:24;4.85;;;1.10;;
25717;SDS011;13574;52.040;5.692;2022-07-26T12:23:44;6.20;;;1.30;;
25717;SDS011;13574;52.040;5.692;2022-07-26T12:26:25;4.57;;;0.90;;
25717;SDS011;13574;52.040;5.692;2022-07-26T12:28:56;5.00;;;1.10;;
25717;SDS011;13574;52.040;5.692;2022-07-26T12:31:48;6.20;;;1.00;;
25717;SDS011;13574;52.040;5.692;2022-07-26T12:34:28;4.50;;;1.00;;
25717;SDS011;13574;52.040;5.692;2022-07-26T12:37:07;5.35;;;1.17;;
25717;SDS011;13574;52.040;5.692;2022-07-26T12:39:57;5.00;;;1.10;;
25717;SDS011;13574;52.040;5.692;2022-07-26T12:42:29;6.28;;;1.20;;
25717;SDS011;13574;52.040;5.692;2022-07-26T12:45:10;3.03;;;0.90;;
25717;SDS011;13574;52.040;5.692;2022-07-26T12:47:38;4.72;;;1.60;;
25717;SDS011;13574;52.040;5.692;2022-07-26T12:50:08;4.55;;;0.85;;
25717;SDS011;13574;52.040;5.692;2022-07-26T12:52:34;6.93;;;1.23;;
25717;SDS011;13574;52.040;5.692;2022-07-26T12:55:03;5.40;;;1.00;;
25717;SDS011;13574;52.040;5.692;2022-07-26T12:57:35;4.15;;;1.00;;
25717;SDS011;13574;52.040;5.692;2022-07-26T13:00:06;3.85;;;1.27;;
25717;SDS011;13574;52.040;5.692;2022-07-26T13:02:34;5.55;;;1.13;;
25717;SDS011;13574;52.040;5.692;2022-07-26T13:05:01;4.45;;;1.17;;
25717;SDS011;13574;52.040;5.692;2022-07-26T13:07:30;4.97;;;1.30;;
25717;SDS011;13574;52.040;5.692;2022-07-26T13:09:56;5.03;;;1.20;;
25717;SDS011;13574;52.040;5.692;2022-07-26T13:12:33;4.90;;;1.13;;
25717;SDS011;13574;52.040;5.692;2022-07-26T13:14:59;4.85;;;2.10;;
25717;SDS011;13574;52.040;5.692;2022-07-26T13:17:25;8.55;;;1.52;;
25717;SDS011;13574;52.040;5.692;2022-07-26T13:19:51;6.03;;;1.70;;
25717;SDS011;13574;52.040;5.692;2022-07-26T13:22:19;5.32;;;1.63;;
25717;SDS011;13574;52.040;5.692;2022-07-26T13:24:45;7.28;;;1.67;;
25717;SDS011;13574;52.040;5.692;2022-07-26T13:27:16;8.45;;;1.90;;
25717;SDS011;13574;52.040;5.692;2022-07-26T13:29:42;7.00;;;1.40;;
25717;SDS011;13574;52.040;5.692;2022-07-26T13:32:07;4.47;;;1.40;;
25717;SDS011;13574;52.040;5.692;2022-07-26T13:34:41;8.50;;;1.20;;
25717;SDS011;13574;52.040;5.692;2022-07-26T13:37:07;6.25;;;1.45;;
25717;SDS011;13574;52.040;5.692;2022-07-26T13:39:40;6.60;;;1.30;;
25717;SDS011;13574;52.040;5.692;2022-07-26T13:42:15;6.10;;;1.60;;
25717;SDS011;13574;52.040;5.692;2022-07-26T13:44:43;5.63;;;1.23;;
25717;SDS011;13574;52.040;5.692;2022-07-26T13:47:09;6.78;;;1.83;;
25717;SDS011;13574;52.040;5.692;2022-07-26T13:49:46;10.60;;;1.70;;
25717;SDS011;13574;52.040;5.692;2022-07-26T13:52:12;10.32;;;1.83;;
25717;SDS011;13574;52.040;5.692;2022-07-26T13:54:38;6.35;;;1.50;;
25717;SDS011;13574;52.040;5.692;2022-07-26T13:57:03;9.05;;;1.52;;
25717;SDS011;13574;52.040;5.692;2022-07-26T13:59:31;7.50;;;1.40;;
25717;SDS011;13574;52.040;5.692;2022-07-26T14:01:57;6.97;;;1.48;;
25717;SDS011;13574;52.040;5.692;2022-07-26T14:04:33;7.97;;;1.48;;
25717;SDS011;13574;52.040;5.692;2022-07-26T14:07:02;8.73;;;1.40;;
25717;SDS011;13574;52.040;5.692;2022-07-26T14:09:30;6.95;;;1.55;;
25717;SDS011;13574;52.040;5.692;2022-07-26T14:12:01;6.47;;;1.25;;
25717;SDS011;13574;52.040;5.692;2022-07-26T14:14:31;7.68;;;1.30;;
25717;SDS011;13574;52.040;5.692;2022-07-26T14:16:57;6.20;;;1.40;;
25717;SDS011;13574;52.040;5.692;2022-07-26T14:19:22;9.07;;;1.75;;
25717;SDS011;13574;52.040;5.692;2022-07-26T14:21:51;8.80;;;1.42;;
25717;SDS011;13574;52.040;5.692;2022-07-26T14:24:17;6.72;;;1.60;;
25717;SDS011;13574;52.040;5.692;2022-07-26T14:26:45;5.78;;;1.33;;
25717;SDS011;13574;52.040;5.692;2022-07-26T14:29:11;6.80;;;1.48;;
25717;SDS011;13574;52.040;5.692;2022-07-26T14:31:37;7.35;;;1.60;;
25717;SDS011;13574;52.040;5.692;2022-07-26T14:34:02;5.95;;;1.15;;
25717;SDS011;13574;52.040;5.692;2022-07-26T14:36:33;7.97;;;1.85;;
25717;SDS011;13574;52.040;5.692;2022-07-26T14:38:59;4.70;;;1.42;;
25717;SDS011;13574;52.040;5.692;2022-07-26T14:41:27;6.80;;;1.60;;
25717;SDS011;13574;52.040;5.692;2022-07-26T14:43:55;6.78;;;1.70;;
25717;SDS011;13574;52.040;5.692;2022-07-26T14:46:21;5.40;;;1.27;;
25717;SDS011;13574;52.040;5.692;2022-07-26T14:48:50;4.93;;;1.00;;
25717;SDS011;13574;52.040;5.692;2022-07-26T14:51:15;5.10;;;1.40;;
25717;SDS011;13574;52.040;5.692;2022-07-26T14:53:44;6.53;;;1.95;;
25717;SDS011;13574;52.040;5.692;2022-07-26T14:56:12;5.45;;;1.23;;
25717;SDS011;13574;52.040;5.692;2022-07-26T14:58:40;5.35;;;1.50;;
25717;SDS011;13574;52.040;5.692;2022-07-26T15:01:15;7.22;;;1.40;;
25717;SDS011;13574;52.040;5.692;2022-07-26T15:03:41;4.53;;;1.10;;
25717;SDS011;13574;52.040;5.692;2022-07-26T15:06:12;5.18;;;1.00;;
25717;SDS011;13574;52.040;5.692;2022-07-26T15:08:38;6.32;;;1.38;;
25717;SDS011;13574;52.040;5.692;2022-07-26T15:11:04;5.28;;;1.33;;
25717;SDS011;13574;52.040;5.692;2022-07-26T15:13:30;6.80;;;1.50;;
25717;SDS011;13574;52.040;5.692;2022-07-26T15:15:55;5.38;;;1.50;;
25717;SDS011;13574;52.040;5.692;2022-07-26T15:18:24;5.28;;;0.90;;
25717;SDS011;13574;52.040;5.692;2022-07-26T15:20:52;3.70;;;1.17;;